createdAt,value
2023-04-02T00:01:38.491Z,8.21
2023-04-02T00:04:21.977Z,8.55
2023-04-02T00:06:54.173Z,8.62
2023-04-02T00:09:33.165Z,8.71
2023-04-02T00:12:15.368Z,8.63
2023-04-02T00:14:47.480Z,8.60
2023-04-02T00:17:14.625Z,8.61
2023-04-02T00:19:45.617Z,8.60
2023-04-02T00:22:16.503Z,8.62
2023-04-02T00:24:44.447Z,8.60
2023-04-02T00:27:12.651Z,8.55
2023-04-02T00:29:46.384Z,8.65
2023-04-02T00:32:20.252Z,8.46
2023-04-02T00:34:46.974Z,8.58
2023-04-02T00:37:18.306Z,6.39
2023-04-02T00:39:46.294Z,6.34
2023-04-02T00:42:13.318Z,8.03
2023-04-02T00:44:44.618Z,7.63
2023-04-02T00:47:15.538Z,8.26
2023-04-02T00:49:43.320Z,6.44
2023-04-02T00:52:12.894Z,6.85
2023-04-02T00:54:44.009Z,8.16
2023-04-02T00:57:20.225Z,8.33
2023-04-02T00:59:56.196Z,8.36
2023-04-02T01:02:29.150Z,8.38
2023-04-02T01:04:58.574Z,8.38
2023-04-02T01:07:47.368Z,8.08
2023-04-02T01:10:26.427Z,8.15
2023-04-02T01:13:08.054Z,7.68
2023-04-02T01:15:39.940Z,7.87
2023-04-02T01:18:33.235Z,8.27
2023-04-02T01:21:25.401Z,8.32
2023-04-02T01:23:59.265Z,8.36
2023-04-02T01:26:40.825Z,8.05
2023-04-02T01:29:12.804Z,8.02
2023-04-02T01:31:40.857Z,8.25
2023-04-02T01:34:11.204Z,8.30
2023-04-02T01:36:48.404Z,8.22
2023-04-02T01:39:39.791Z,8.28
2023-04-02T01:42:17.031Z,8.31
2023-04-02T01:44:48.740Z,8.30
2023-04-02T01:47:18.460Z,8.31
2023-04-02T01:49:45.797Z,8.33
2023-04-02T01:52:16.125Z,8.31
2023-04-02T01:54:43.333Z,7.87
2023-04-02T01:57:10.555Z,7.58
2023-04-02T01:59:37.368Z,7.88
2023-04-02T02:02:09.184Z,8.13
2023-04-02T02:04:35.868Z,6.00
2023-04-02T02:07:03.756Z,7.54
2023-04-02T02:09:34.066Z,6.63
2023-04-02T02:12:02.851Z,7.47
2023-04-02T02:14:31.295Z,7.86
2023-04-02T02:17:02.062Z,8.06
2023-04-02T02:19:36.138Z,8.14
2023-04-02T02:22:12.039Z,7.93
2023-04-02T02:24:38.988Z,8.10
2023-04-02T02:27:26.947Z,8.09
2023-04-02T02:29:57.687Z,8.10
2023-04-02T02:32:29.068Z,8.13
2023-04-02T02:35:03.811Z,8.06
2023-04-02T02:37:37.371Z,8.11
2023-04-02T02:40:08.445Z,8.09
2023-04-02T02:42:38.791Z,8.12
2023-04-02T02:45:12.927Z,8.06
2023-04-02T02:47:43.830Z,8.07
2023-04-02T02:50:19.448Z,8.06
2023-04-02T02:52:50.916Z,8.07
2023-04-02T02:55:19.870Z,8.06
2023-04-02T02:57:48.958Z,8.08
2023-04-02T03:00:17.852Z,8.04
2023-04-02T03:02:44.905Z,8.04
2023-04-02T03:05:17.995Z,8.04
2023-04-02T03:07:44.720Z,8.04
2023-04-02T03:10:17.629Z,7.79
2023-04-02T03:12:51.691Z,6.54
2023-04-02T03:15:23.182Z,7.56
2023-04-02T03:17:53.346Z,7.79
2023-04-02T03:20:27.531Z,6.54
2023-04-02T03:22:57.669Z,6.63
2023-04-02T03:25:34.411Z,7.66
2023-04-02T03:28:04.805Z,7.84
2023-04-02T03:30:38.537Z,7.88
2023-04-02T03:33:11.795Z,7.90
2023-04-02T03:35:45.969Z,7.69
2023-04-02T03:38:17.167Z,7.89
2023-04-02T03:40:58.043Z,7.88
2023-04-02T03:43:26.971Z,7.95
2023-04-02T03:45:58.082Z,7.90
2023-04-02T03:48:31.203Z,7.85
2023-04-02T03:51:06.377Z,7.83
2023-04-02T03:53:33.605Z,7.88
2023-04-02T03:56:02.198Z,7.81
2023-04-02T03:58:34.912Z,7.87
2023-04-02T04:01:08.392Z,7.60
2023-04-02T04:03:41.815Z,7.77
2023-04-02T04:06:15.607Z,7.81
2023-04-02T04:08:46.921Z,7.80
2023-04-02T04:11:16.960Z,7.76
2023-04-02T04:13:51.389Z,7.75
2023-04-02T04:16:22.511Z,7.76
2023-04-02T04:18:57.400Z,6.60
2023-04-02T04:21:31.137Z,7.58
2023-04-02T04:24:05.797Z,7.73
2023-04-02T04:26:39.479Z,5.05
2023-04-02T04:29:15.341Z,7.22
2023-04-02T04:31:47.104Z,7.54
2023-04-02T04:34:18.177Z,7.60
2023-04-02T04:36:54.038Z,7.64
2023-04-02T04:39:29.546Z,7.61
2023-04-02T04:41:59.488Z,7.70
2023-04-02T04:44:39.914Z,7.68
2023-04-02T04:47:10.780Z,6.98
2023-04-02T04:49:44.195Z,5.03
2023-04-02T04:52:19.027Z,4.19
2023-04-02T04:54:46.504Z,6.94
2023-04-02T04:57:27.762Z,7.40
2023-04-02T05:00:01.241Z,7.53
2023-04-02T05:02:32.304Z,7.51
2023-04-02T05:05:02.881Z,7.57
2023-04-02T05:07:43.064Z,7.55
2023-04-02T05:10:17.827Z,7.49
2023-04-02T05:12:51.498Z,7.48
2023-04-02T05:15:25.065Z,7.44
2023-04-02T05:17:59.582Z,7.47
2023-04-02T05:20:31.762Z,7.53
2023-04-02T05:23:05.939Z,7.46
2023-04-02T05:25:33.465Z,7.41
2023-04-02T05:28:05.723Z,7.53
2023-04-02T05:30:49.618Z,5.64
2023-04-02T05:33:23.297Z,7.02
2023-04-02T05:35:57.472Z,7.31
2023-04-02T05:38:28.263Z,7.34
2023-04-02T05:41:01.094Z,7.36
2023-04-02T05:43:31.839Z,7.41
2023-04-02T05:46:03.680Z,7.42
2023-04-02T05:48:36.372Z,7.43
2023-04-02T05:51:05.470Z,7.37
2023-04-02T05:53:36.509Z,7.37
2023-04-02T05:56:10.783Z,7.35
2023-04-02T05:58:45.560Z,7.28
2023-04-02T06:01:29.702Z,7.30
2023-04-02T06:04:02.842Z,7.32
2023-04-02T06:06:43.488Z,7.40
2023-04-02T06:09:15.665Z,6.17
2023-04-02T06:11:46.289Z,7.04
2023-04-02T06:14:15.518Z,6.97
2023-04-02T06:16:44.363Z,7.69
2023-04-02T06:19:18.917Z,7.73
2023-04-02T06:21:45.977Z,7.11
2023-04-02T06:24:19.822Z,6.67
2023-04-02T06:26:51.456Z,7.07
2023-04-02T06:29:24.118Z,7.28
2023-04-02T06:31:53.925Z,7.28
2023-04-02T06:34:22.428Z,7.31
2023-04-02T06:36:51.379Z,7.27
2023-04-02T06:39:22.775Z,7.83
2023-04-02T06:41:58.692Z,8.16
2023-04-02T06:44:28.092Z,7.40
2023-04-02T06:46:58.300Z,7.45
2023-04-02T06:49:32.622Z,7.43
2023-04-02T06:52:02.558Z,7.46
2023-04-02T06:54:31.162Z,7.70
2023-04-02T06:56:57.789Z,7.98
2023-04-02T06:59:25.018Z,9.13
2023-04-02T07:01:55.382Z,9.62
2023-04-02T07:04:22.491Z,9.70
2023-04-02T07:06:49.235Z,10.00
2023-04-02T07:09:16.972Z,9.23
2023-04-02T07:11:46.015Z,9.40
2023-04-02T07:14:13.299Z,10.01
2023-04-02T07:16:41.536Z,9.98
2023-04-02T07:19:17.047Z,9.83
2023-04-02T07:21:43.681Z,10.18
2023-04-02T07:24:10.331Z,11.04
2023-04-02T07:26:37.303Z,11.95
2023-04-02T07:29:06.849Z,10.23
2023-04-02T07:31:33.548Z,11.20
2023-04-02T07:34:00.724Z,10.39
2023-04-02T07:36:28.648Z,8.84
2023-04-02T07:38:55.870Z,9.42
2023-04-02T07:41:23.267Z,8.97
2023-04-02T07:43:50.015Z,9.52
2023-04-02T07:46:20.044Z,11.32
2023-04-02T07:48:47.193Z,10.78
2023-04-02T07:51:19.371Z,9.67
2023-04-02T07:53:50.050Z,9.03
2023-04-02T07:56:18.459Z,8.62
2023-04-02T07:58:45.122Z,8.62
2023-04-02T08:01:19.310Z,9.61
2023-04-02T08:03:46.387Z,9.10
2023-04-02T08:06:13.639Z,9.18
2023-04-02T08:08:41.080Z,8.45
2023-04-02T08:11:07.998Z,9.56
2023-04-02T08:13:34.972Z,8.66
2023-04-02T08:16:02.856Z,10.57
2023-04-02T08:18:30.988Z,10.52
2023-04-02T08:20:58.275Z,9.37
2023-04-02T08:23:24.970Z,9.66
2023-04-02T08:25:51.930Z,10.82
2023-04-02T08:28:18.515Z,11.70
2023-04-02T08:30:45.555Z,10.94
2023-04-02T08:33:12.243Z,11.53
2023-04-02T08:35:40.647Z,11.65
2023-04-02T08:38:07.744Z,11.02
2023-04-02T08:40:37.653Z,11.10
2023-04-02T08:43:16.052Z,9.53
2023-04-02T08:45:55.555Z,10.05
2023-04-02T08:48:23.371Z,10.36
2023-04-02T08:50:52.092Z,10.16
2023-04-02T08:53:22.392Z,9.62
2023-04-02T08:55:59.646Z,10.08
2023-04-02T08:58:35.842Z,9.81
2023-04-02T09:01:05.777Z,9.75
2023-04-02T09:03:36.568Z,9.37
2023-04-02T09:06:09.885Z,9.48
2023-04-02T09:08:36.857Z,9.50
2023-04-02T09:11:07.891Z,9.51
2023-04-02T09:13:37.614Z,8.97
2023-04-02T09:16:09.742Z,8.89
2023-04-02T09:18:38.396Z,8.90
2023-04-02T09:21:28.187Z,8.83
2023-04-02T09:23:55.155Z,9.01
2023-04-02T09:26:23.749Z,9.10
2023-04-02T09:28:52.776Z,9.36
2023-04-02T09:31:23.857Z,9.01
2023-04-02T09:33:51.614Z,8.81
2023-04-02T09:36:35.424Z,8.78
2023-04-02T09:39:06.965Z,8.88
2023-04-02T09:41:36.863Z,9.24
2023-04-02T09:44:22.322Z,9.41
2023-04-02T09:46:54.462Z,8.83
2023-04-02T09:49:24.621Z,8.90
2023-04-02T09:52:09.345Z,9.00
2023-04-02T09:54:41.867Z,8.82
2023-04-02T09:57:21.154Z,9.08
2023-04-02T09:59:47.796Z,10.63
2023-04-02T10:02:25.004Z,10.57
2023-04-02T10:04:52.214Z,9.61
2023-04-02T10:07:42.887Z,9.66
2023-04-02T10:10:19.434Z,9.29
2023-04-02T10:12:51.443Z,10.76
2023-04-02T10:15:25.739Z,9.85
2023-04-02T10:17:59.908Z,10.31
2023-04-02T10:20:30.522Z,10.27
2023-04-02T10:23:00.138Z,10.05
2023-04-02T10:25:34.377Z,9.87
2023-04-02T10:28:08.953Z,9.82
2023-04-02T10:30:48.922Z,10.87
2023-04-02T10:33:21.995Z,10.67
2023-04-02T10:35:55.609Z,10.73
2023-04-02T10:38:34.456Z,10.99
2023-04-02T10:41:07.735Z,10.80
2023-04-02T10:44:24.022Z,10.07
2023-04-02T10:47:03.603Z,9.96
2023-04-02T10:49:40.059Z,9.81
2023-04-02T10:52:10.506Z,10.14
2023-04-02T10:54:43.010Z,9.94
2023-04-02T10:57:22.008Z,10.31
2023-04-02T10:59:54.636Z,10.70
2023-04-02T11:02:36.350Z,9.92
2023-04-02T11:05:13.067Z,10.52
2023-04-02T11:07:49.187Z,12.02
2023-04-02T11:10:19.962Z,12.84
2023-04-02T11:12:52.665Z,10.91
2023-04-02T11:15:20.751Z,11.84
2023-04-02T11:17:48.182Z,11.08
2023-04-02T11:20:57.830Z,10.42
2023-04-02T11:23:27.522Z,11.20
2023-04-02T11:26:31.093Z,11.77
2023-04-02T11:29:04.675Z,13.42
2023-04-02T11:31:31.560Z,13.62
2023-04-02T11:33:58.226Z,11.13
2023-04-02T11:37:00.893Z,11.69
2023-04-02T11:39:53.464Z,12.86
2023-04-02T11:42:27.859Z,13.34
2023-04-02T11:44:56.614Z,12.82
2023-04-02T11:47:24.949Z,12.45
2023-04-02T11:50:27.261Z,12.37
2023-04-02T11:52:56.053Z,12.35
2023-04-02T11:55:28.813Z,12.08
2023-04-02T11:58:30.025Z,11.99
2023-04-02T12:01:24.530Z,12.41
2023-04-02T12:04:07.755Z,11.94
2023-04-02T12:06:48.087Z,11.46
2023-04-02T12:09:20.745Z,11.12
2023-04-02T12:11:49.854Z,11.05
2023-04-02T12:14:41.679Z,10.67
2023-04-02T12:17:18.412Z,10.56
2023-04-02T12:19:49.844Z,10.55
2023-04-02T12:22:21.559Z,10.73
2023-04-02T12:24:49.391Z,10.41
2023-04-02T12:27:22.650Z,10.32
2023-04-02T12:29:52.183Z,10.78
2023-04-02T12:32:29.630Z,10.67
2023-04-02T12:35:04.544Z,10.40
2023-04-02T12:37:31.412Z,10.40
2023-04-02T12:39:59.886Z,10.43
2023-04-02T12:42:29.345Z,10.75
2023-04-02T12:44:57.413Z,10.60
2023-04-02T12:47:24.787Z,10.43
2023-04-02T12:49:52.372Z,10.34
2023-04-02T12:52:22.024Z,10.76
2023-04-02T12:54:49.271Z,11.10
2023-04-02T12:57:40.184Z,10.20
2023-04-02T13:00:36.704Z,10.68
2023-04-02T13:03:19.334Z,11.13
2023-04-02T13:05:50.884Z,10.69
2023-04-02T13:08:20.179Z,10.47
2023-04-02T13:10:53.231Z,11.18
2023-04-02T13:13:24.742Z,11.29
2023-04-02T13:16:03.633Z,11.14
2023-04-02T13:18:31.856Z,10.90
2023-04-02T13:20:59.472Z,10.93
2023-04-02T13:23:36.432Z,10.89
2023-04-02T13:26:14.726Z,10.96
2023-04-02T13:28:41.626Z,11.02
2023-04-02T13:31:14.696Z,11.02
2023-04-02T13:33:41.674Z,11.14
2023-04-02T13:36:12.768Z,11.44
2023-04-02T13:38:39.383Z,10.86
2023-04-02T13:41:06.154Z,10.96
2023-04-02T13:43:32.769Z,11.13
2023-04-02T13:46:01.104Z,11.07
2023-04-02T13:48:29.065Z,11.22
2023-04-02T13:50:55.763Z,11.18
2023-04-02T13:53:28.205Z,10.47
2023-04-02T13:55:55.513Z,10.14
2023-04-02T13:58:22.860Z,10.23
2023-04-02T14:00:50.019Z,10.78
2023-04-02T14:03:21.811Z,10.36
2023-04-02T14:05:58.074Z,10.37
2023-04-02T14:08:37.428Z,10.59
2023-04-02T14:11:15.044Z,10.31
2023-04-02T14:14:08.160Z,10.34
2023-04-02T14:16:52.606Z,10.42
2023-04-02T14:19:34.497Z,10.20
2023-04-02T14:22:14.515Z,11.04
2023-04-02T14:24:51.274Z,11.20
2023-04-02T14:27:27.122Z,11.38
2023-04-02T14:30:01.584Z,10.61
2023-04-02T14:32:37.318Z,10.87
2023-04-02T14:35:13.135Z,11.09
2023-04-02T14:37:50.608Z,10.84
2023-04-02T14:40:26.089Z,11.01
2023-04-02T14:42:57.477Z,10.70
2023-04-02T14:45:38.857Z,11.24
2023-04-02T14:48:12.574Z,10.77
2023-04-02T14:50:41.778Z,10.73
2023-04-02T14:53:18.883Z,11.34
2023-04-02T14:55:49.694Z,11.42
2023-04-02T14:58:21.422Z,11.05
2023-04-02T15:00:56.632Z,10.96
2023-04-02T15:03:27.683Z,10.94
2023-04-02T15:05:57.935Z,10.84
2023-04-02T15:08:28.740Z,10.83
2023-04-02T15:11:04.932Z,10.94
2023-04-02T15:13:38.156Z,10.88
2023-04-02T15:16:13.442Z,11.01
2023-04-02T15:18:40.652Z,10.90
2023-04-02T15:21:25.535Z,11.11
2023-04-02T15:24:01.564Z,11.04
2023-04-02T15:26:36.643Z,11.07
2023-04-02T15:29:25.875Z,11.03
2023-04-02T15:32:05.487Z,11.02
2023-04-02T15:34:38.983Z,10.86
2023-04-02T15:37:15.824Z,10.83
2023-04-02T15:39:52.165Z,10.90
2023-04-02T15:42:23.568Z,10.80
2023-04-02T15:45:31.500Z,10.88
2023-04-02T15:48:28.066Z,10.86
2023-04-02T15:51:07.014Z,10.53
2023-04-02T15:53:43.614Z,10.29
2023-04-02T15:56:25.160Z,9.81
2023-04-02T15:59:28.816Z,9.49
2023-04-02T16:02:06.922Z,9.64
2023-04-02T16:04:52.427Z,9.48
2023-04-02T16:07:34.399Z,9.65
2023-04-02T16:10:12.741Z,9.80
2023-04-02T16:12:41.623Z,9.89
2023-04-02T16:15:16.417Z,9.88
2023-04-02T16:17:47.033Z,9.15
2023-04-02T16:20:19.858Z,8.79
2023-04-02T16:22:59.994Z,9.01
2023-04-02T16:25:31.488Z,8.76
2023-04-02T16:28:12.130Z,8.13
2023-04-02T16:30:49.481Z,7.68
2023-04-02T16:33:42.755Z,7.42
2023-04-02T16:36:20.089Z,7.69
2023-04-02T16:38:57.511Z,9.66
2023-04-02T16:41:35.752Z,9.95
2023-04-02T16:44:20.005Z,9.71
2023-04-02T16:46:57.723Z,10.21
2023-04-02T16:49:36.113Z,9.37
2023-04-02T16:52:13.923Z,10.06
2023-04-02T16:54:48.449Z,8.95
2023-04-02T16:57:27.765Z,8.44
2023-04-02T17:00:06.600Z,9.46
2023-04-02T17:02:46.773Z,10.27
2023-04-02T17:05:27.048Z,9.68
2023-04-02T17:08:03.520Z,9.13
2023-04-02T17:10:32.447Z,8.53
2023-04-02T17:13:18.852Z,9.54
2023-04-02T17:15:51.472Z,7.85
2023-04-02T17:18:20.805Z,7.54
2023-04-02T17:20:47.891Z,8.55
2023-04-02T17:23:16.765Z,8.60
2023-04-02T17:25:49.036Z,9.20
2023-04-02T17:28:25.192Z,8.54
2023-04-02T17:30:55.408Z,8.67
2023-04-02T17:33:25.027Z,9.99
2023-04-02T17:35:58.360Z,10.09
2023-04-02T17:38:35.080Z,9.99
2023-04-02T17:41:09.849Z,8.21
2023-04-02T17:43:45.269Z,10.00
2023-04-02T17:46:22.496Z,10.36
2023-04-02T17:48:55.998Z,10.35
2023-04-02T17:51:31.833Z,10.33
2023-04-02T17:54:15.495Z,10.39
2023-04-02T17:57:00.235Z,10.44
2023-04-02T17:59:51.409Z,10.51
2023-04-02T18:02:37.974Z,10.53
2023-04-02T18:05:14.796Z,10.48
2023-04-02T18:07:49.675Z,10.44
2023-04-02T18:10:27.097Z,10.38
2023-04-02T18:12:57.627Z,10.40
2023-04-02T18:16:01.398Z,10.43
2023-04-02T18:18:58.316Z,10.47
2023-04-02T18:21:31.269Z,10.52
2023-04-02T18:24:21.184Z,10.58
2023-04-02T18:26:58.286Z,10.61
2023-04-02T18:29:33.602Z,10.63
2023-04-02T18:32:30.985Z,10.58
2023-04-02T18:35:12.135Z,10.54
2023-04-02T18:37:52.870Z,9.51
2023-04-02T18:40:34.683Z,7.76
2023-04-02T18:43:10.525Z,7.50
2023-04-02T18:45:48.614Z,9.32
2023-04-02T18:48:31.434Z,10.24
2023-04-02T18:51:00.759Z,10.31
2023-04-02T18:53:30.213Z,10.33
2023-04-02T18:56:00.274Z,10.36
2023-04-02T18:58:33.871Z,10.39
2023-04-02T19:01:04.462Z,10.42
2023-04-02T19:03:36.565Z,10.13
2023-04-02T19:06:07.453Z,8.09
2023-04-02T19:08:39.550Z,7.15
2023-04-02T19:11:11.904Z,7.43
2023-04-02T19:13:38.502Z,7.56
2023-04-02T19:16:28.697Z,9.07
2023-04-02T19:19:03.319Z,9.89
2023-04-02T19:21:39.884Z,7.27
2023-04-02T19:24:30.374Z,8.95
2023-04-02T19:27:03.426Z,9.83
2023-04-02T19:29:44.978Z,9.71
2023-04-02T19:32:23.253Z,9.37
2023-04-02T19:34:55.895Z,9.17
2023-04-02T19:37:32.655Z,9.75
2023-04-02T19:40:26.407Z,8.92
2023-04-02T19:42:54.289Z,8.33
2023-04-02T19:45:35.521Z,6.62
2023-04-02T19:48:11.290Z,7.22
2023-04-02T19:50:38.057Z,6.75
2023-04-02T19:53:06.025Z,6.71
2023-04-02T19:55:32.713Z,7.82
2023-04-02T19:58:12.718Z,6.89
2023-04-02T20:00:45.773Z,7.42
2023-04-02T20:03:12.368Z,6.91
2023-04-02T20:05:39.129Z,7.44
2023-04-02T20:08:07.254Z,7.59
2023-04-02T20:10:33.931Z,7.99
2023-04-02T20:13:00.606Z,7.91
2023-04-02T20:15:27.799Z,6.28
2023-04-02T20:17:54.460Z,5.79
2023-04-02T20:20:21.150Z,7.36
2023-04-02T20:22:47.931Z,7.84
2023-04-02T20:25:16.107Z,6.74
2023-04-02T20:27:42.675Z,7.87
2023-04-02T20:30:09.774Z,8.93
2023-04-02T20:32:37.976Z,8.22
2023-04-02T20:35:06.043Z,8.41
2023-04-02T20:37:32.729Z,7.92
2023-04-02T20:39:59.374Z,9.04
2023-04-02T20:42:27.771Z,8.27
2023-04-02T20:44:54.363Z,9.11
2023-04-02T20:47:20.937Z,9.15
2023-04-02T20:49:47.580Z,8.88
2023-04-02T20:52:14.184Z,8.09
2023-04-02T20:54:40.950Z,8.55
2023-04-02T20:57:07.763Z,8.82
2023-04-02T20:59:35.889Z,8.45
2023-04-02T21:02:02.525Z,8.48
2023-04-02T21:04:29.110Z,9.28
2023-04-02T21:06:57.134Z,7.76
2023-04-02T21:09:23.857Z,9.00
2023-04-02T21:11:50.548Z,8.87
2023-04-02T21:14:17.673Z,8.73
2023-04-02T21:16:45.655Z,9.32
2023-04-02T21:19:12.498Z,8.97
2023-04-02T21:21:40.557Z,7.88
2023-04-02T21:24:08.945Z,8.73
2023-04-02T21:26:37.316Z,5.83
2023-04-02T21:29:04.727Z,5.99
2023-04-02T21:31:34.784Z,6.00
2023-04-02T21:34:04.050Z,7.57
2023-04-02T21:36:32.477Z,8.44
2023-04-02T21:39:02.225Z,8.45
2023-04-02T21:41:29.780Z,8.44
2023-04-02T21:43:57.746Z,8.78
2023-04-02T21:46:25.962Z,9.23
2023-04-02T21:48:54.498Z,8.77
2023-04-02T21:51:23.991Z,8.95
2023-04-02T21:53:50.978Z,8.92
2023-04-02T21:56:18.865Z,9.20
2023-04-02T21:58:47.380Z,9.00
2023-04-02T22:01:26.551Z,8.35
2023-04-02T22:03:53.587Z,8.99
2023-04-02T22:06:23.049Z,8.78
2023-04-02T22:08:53.991Z,9.00
2023-04-02T22:11:22.886Z,7.63
2023-04-02T22:13:50.036Z,7.83
2023-04-02T22:16:19.566Z,8.90
2023-04-02T22:18:47.509Z,9.17
2023-04-02T22:21:15.406Z,9.19
2023-04-02T22:23:44.263Z,9.23
2023-04-02T22:26:12.100Z,9.27
2023-04-02T22:28:38.951Z,9.25
2023-04-02T22:31:07.847Z,9.25
2023-04-02T22:33:35.612Z,9.27
2023-04-02T22:36:02.268Z,9.26
2023-04-02T22:38:28.884Z,9.27
2023-04-02T22:41:06.531Z,9.27
2023-04-02T22:43:33.478Z,9.25
2023-04-02T22:46:00.275Z,9.23
2023-04-02T22:48:27.023Z,8.62
2023-04-02T22:50:53.963Z,9.14
2023-04-02T22:53:20.509Z,9.19
2023-04-02T22:55:47.459Z,9.19
2023-04-02T22:58:15.356Z,9.19
2023-04-02T23:00:42.219Z,9.19
2023-04-02T23:03:08.927Z,9.19
2023-04-02T23:05:35.495Z,9.17
2023-04-02T23:08:02.065Z,9.15
2023-04-02T23:10:29.055Z,9.15
2023-04-02T23:12:57.228Z,9.13
2023-04-02T23:15:25.401Z,9.14
2023-04-02T23:17:52.014Z,8.21
2023-04-02T23:20:18.739Z,8.99
2023-04-02T23:22:45.445Z,9.10
2023-04-02T23:25:12.009Z,9.06
2023-04-02T23:27:38.608Z,9.07
2023-04-02T23:30:06.857Z,9.06
2023-04-02T23:32:34.852Z,9.06
2023-04-02T23:35:01.432Z,9.02
2023-04-02T23:37:28.020Z,9.05
2023-04-02T23:39:54.560Z,9.03
2023-04-02T23:42:21.247Z,9.04
2023-04-02T23:44:47.809Z,9.04
2023-04-02T23:47:14.334Z,9.00
2023-04-02T23:49:47.483Z,8.97
2023-04-02T23:52:14.388Z,8.97
2023-04-02T23:54:40.989Z,8.99
2023-04-02T23:57:07.638Z,8.98
2023-04-02T23:59:34.262Z,8.94
